createdAt,value
2018-12-20T00:00:33.744Z,4.03
2018-12-20T00:03:01.891Z,4.02
2018-12-20T00:05:29.969Z,4.04
2018-12-20T00:07:58.468Z,4.08
2018-12-20T00:10:28.075Z,4.03
2018-12-20T00:12:56.121Z,3.95
2018-12-20T00:15:24.258Z,4.02
2018-12-20T00:17:53.088Z,4.08
2018-12-20T00:20:21.752Z,4.00
2018-12-20T00:22:49.749Z,4.00
2018-12-20T00:25:17.744Z,4.06
2018-12-20T00:27:45.749Z,4.17
2018-12-20T00:30:14.682Z,4.17
2018-12-20T00:32:42.803Z,4.12
2018-12-20T00:35:10.874Z,4.00
2018-12-20T00:37:39.627Z,4.04
2018-12-20T00:40:07.867Z,4.04
2018-12-20T00:42:35.923Z,4.06
2018-12-20T00:45:04.236Z,4.24
2018-12-20T00:47:32.954Z,4.19
2018-12-20T00:50:00.933Z,4.18
2018-12-20T00:52:29.110Z,4.16
2018-12-20T00:54:57.565Z,4.05
2018-12-20T00:57:25.529Z,4.01
2018-12-20T00:59:53.720Z,4.07
2018-12-20T01:02:21.801Z,3.99
2018-12-20T01:04:49.781Z,4.01
2018-12-20T01:07:17.743Z,3.95
2018-12-20T01:09:45.715Z,3.98
2018-12-20T01:12:13.823Z,3.97
2018-12-20T01:14:45.382Z,4.04
2018-12-20T01:17:11.976Z,4.16
2018-12-20T01:19:40.546Z,4.16
2018-12-20T01:22:08.601Z,4.21
2018-12-20T01:24:36.585Z,4.36
2018-12-20T01:27:04.633Z,4.22
2018-12-20T01:29:32.760Z,4.27
2018-12-20T01:32:01.420Z,4.20
2018-12-20T01:34:29.538Z,4.23
2018-12-20T01:36:57.606Z,4.34
2018-12-20T01:39:25.662Z,4.31
2018-12-20T01:41:53.687Z,4.23
2018-12-20T01:44:21.739Z,4.24
2018-12-20T01:46:50.022Z,4.27
2018-12-20T01:49:18.200Z,4.05
2018-12-20T01:51:46.276Z,4.08
2018-12-20T01:54:14.365Z,4.15
2018-12-20T01:56:42.418Z,4.12
2018-12-20T01:59:10.556Z,4.14
2018-12-20T02:01:38.624Z,4.06
2018-12-20T02:04:06.829Z,4.00
2018-12-20T02:06:35.314Z,4.02
2018-12-20T02:09:06.778Z,4.08
2018-12-20T02:11:34.883Z,3.89
2018-12-20T02:14:03.137Z,4.12
2018-12-20T02:16:31.204Z,4.03
2018-12-20T02:18:59.249Z,4.07
2018-12-20T02:21:27.536Z,4.06
2018-12-20T02:23:55.623Z,4.04
2018-12-20T02:26:23.622Z,4.01
2018-12-20T02:28:51.627Z,3.92
2018-12-20T02:31:19.726Z,3.90
2018-12-20T02:33:47.702Z,3.92
2018-12-20T02:36:15.679Z,4.03
2018-12-20T02:38:43.741Z,3.92
2018-12-20T02:41:12.864Z,3.93
2018-12-20T02:43:41.189Z,4.00
2018-12-20T02:46:09.326Z,4.06
2018-12-20T02:48:37.601Z,3.97
2018-12-20T02:51:05.710Z,4.02
2018-12-20T02:53:33.759Z,3.91
2018-12-20T02:56:01.817Z,3.93
2018-12-20T02:58:31.044Z,3.97
2018-12-20T03:01:00.097Z,3.93
2018-12-20T03:03:28.390Z,3.97
2018-12-20T03:05:56.465Z,4.00
2018-12-20T03:08:24.474Z,3.92
2018-12-20T03:10:52.411Z,4.05
2018-12-20T03:13:21.187Z,4.01
2018-12-20T03:15:49.228Z,4.00
2018-12-20T03:18:17.571Z,4.01
2018-12-20T03:20:45.561Z,3.95
2018-12-20T03:23:13.704Z,3.99
2018-12-20T03:25:41.783Z,3.98
2018-12-20T03:28:10.068Z,4.00
2018-12-20T03:30:38.880Z,3.89
2018-12-20T03:33:10.479Z,3.90
2018-12-20T03:35:39.026Z,4.08
2018-12-20T03:38:08.483Z,4.03
2018-12-20T03:40:36.472Z,4.01
2018-12-20T03:43:04.670Z,4.15
2018-12-20T03:45:32.987Z,3.99
2018-12-20T03:48:02.467Z,4.02
2018-12-20T03:50:30.426Z,4.01
2018-12-20T03:52:58.524Z,4.05
2018-12-20T03:55:27.349Z,4.10
2018-12-20T03:57:56.132Z,4.10
2018-12-20T04:00:25.162Z,3.92
2018-12-20T04:02:53.299Z,3.92
2018-12-20T04:05:21.396Z,3.88
2018-12-20T04:07:49.513Z,3.86
2018-12-20T04:10:17.769Z,3.98
2018-12-20T04:12:46.410Z,4.04
2018-12-20T04:15:14.435Z,3.85
2018-12-20T04:17:42.443Z,3.78
2018-12-20T04:20:10.762Z,3.83
2018-12-20T04:22:38.999Z,3.78
2018-12-20T04:25:07.202Z,3.78
2018-12-20T04:27:37.200Z,3.80
2018-12-20T04:30:06.172Z,3.69
2018-12-20T04:32:35.074Z,3.70
2018-12-20T04:35:03.311Z,3.69
2018-12-20T04:37:31.250Z,3.64
2018-12-20T04:39:59.264Z,3.69
2018-12-20T04:42:27.258Z,3.60
2018-12-20T04:44:55.267Z,3.57
2018-12-20T04:47:23.275Z,3.55
2018-12-20T04:49:51.274Z,3.57
2018-12-20T04:52:19.287Z,3.57
2018-12-20T04:54:47.817Z,3.54
2018-12-20T04:57:16.143Z,3.54
2018-12-20T04:59:44.315Z,3.43
2018-12-20T05:02:13.095Z,3.41
2018-12-20T05:04:41.123Z,3.41
2018-12-20T05:07:09.094Z,3.44
2018-12-20T05:09:37.233Z,3.49
2018-12-20T05:12:05.304Z,3.31
2018-12-20T05:14:33.602Z,3.34
2018-12-20T05:17:01.995Z,3.40
2018-12-20T05:19:30.103Z,3.39
2018-12-20T05:21:58.380Z,3.36
2018-12-20T05:24:26.648Z,3.47
2018-12-20T05:26:55.481Z,3.41
2018-12-20T05:29:23.627Z,3.29
2018-12-20T05:31:51.582Z,3.38
2018-12-20T05:34:19.608Z,3.30
2018-12-20T05:36:47.752Z,3.24
2018-12-20T05:39:15.978Z,3.35
2018-12-20T05:41:43.977Z,3.29
2018-12-20T05:44:12.065Z,3.24
2018-12-20T05:46:40.552Z,3.34
2018-12-20T05:49:08.735Z,3.30
2018-12-20T05:51:36.941Z,3.31
2018-12-20T05:54:05.229Z,3.34
2018-12-20T05:56:33.396Z,3.26
2018-12-20T05:59:01.423Z,3.17
2018-12-20T06:01:29.489Z,3.23
2018-12-20T06:03:57.619Z,3.16
2018-12-20T06:06:25.634Z,3.11
2018-12-20T06:08:54.177Z,3.03
2018-12-20T06:11:22.429Z,2.98
2018-12-20T06:13:50.491Z,3.05
2018-12-20T06:16:18.627Z,3.06
2018-12-20T06:18:46.798Z,3.08
2018-12-20T06:21:14.901Z,3.13
2018-12-20T06:23:42.873Z,3.02
2018-12-20T06:26:10.836Z,3.03
2018-12-20T06:28:38.819Z,3.11
2018-12-20T06:31:06.807Z,3.13
2018-12-20T06:33:34.770Z,3.06
2018-12-20T06:36:03.482Z,3.15
2018-12-20T06:38:31.518Z,3.21
2018-12-20T06:40:59.482Z,3.08
2018-12-20T06:43:27.456Z,3.18
2018-12-20T06:45:55.473Z,3.21
2018-12-20T06:48:23.450Z,3.03
2018-12-20T06:50:51.414Z,2.96
2018-12-20T06:53:19.391Z,3.00
2018-12-20T06:55:47.696Z,3.00
2018-12-20T06:58:15.694Z,2.99
2018-12-20T07:00:44.426Z,3.00
2018-12-20T07:03:12.502Z,2.89
2018-12-20T07:05:40.470Z,2.91
2018-12-20T07:08:08.414Z,2.93
2018-12-20T07:10:37.095Z,2.89
2018-12-20T07:13:05.454Z,2.81
2018-12-20T07:15:34.071Z,2.81
2018-12-20T07:18:02.031Z,2.81
2018-12-20T07:20:30.129Z,2.87
2018-12-20T07:22:58.121Z,2.88
2018-12-20T07:25:26.171Z,2.84
2018-12-20T07:27:54.863Z,2.88
2018-12-20T07:30:22.852Z,2.88
2018-12-20T07:32:50.875Z,2.81
2018-12-20T07:35:18.921Z,2.78
2018-12-20T07:37:46.946Z,2.69
2018-12-20T07:40:14.964Z,2.84
2018-12-20T07:42:43.037Z,2.70
2018-12-20T07:45:11.670Z,2.80
2018-12-20T07:47:40.766Z,2.89
2018-12-20T07:50:08.795Z,2.85
2018-12-20T07:52:36.783Z,2.88
2018-12-20T07:55:04.950Z,2.84
2018-12-20T07:57:33.085Z,2.84
2018-12-20T08:00:01.095Z,2.87
2018-12-20T08:02:29.484Z,2.82
2018-12-20T08:04:57.522Z,2.86
2018-12-20T08:07:25.530Z,2.90
2018-12-20T08:09:53.484Z,2.98
2018-12-20T08:12:21.527Z,3.03
2018-12-20T08:14:49.497Z,3.04
2018-12-20T08:17:17.445Z,2.96
2018-12-20T08:19:45.468Z,2.93
2018-12-20T08:22:13.457Z,3.04
2018-12-20T08:24:42.024Z,2.99
2018-12-20T08:27:09.992Z,3.11
2018-12-20T08:29:37.962Z,3.01
2018-12-20T08:32:06.010Z,2.98
2018-12-20T08:34:33.974Z,2.95
2018-12-20T08:37:01.974Z,3.01
2018-12-20T08:39:29.923Z,3.10
2018-12-20T08:41:57.921Z,3.06
2018-12-20T08:44:26.730Z,3.13
2018-12-20T08:46:54.800Z,3.20
2018-12-20T08:49:23.624Z,3.29
2018-12-20T08:51:51.615Z,3.32
2018-12-20T08:54:19.662Z,3.18
2018-12-20T08:56:47.826Z,3.31
2018-12-20T08:59:15.835Z,3.35
2018-12-20T09:01:43.821Z,3.42
2018-12-20T09:04:11.762Z,3.41
2018-12-20T09:06:40.352Z,3.42
2018-12-20T09:09:08.349Z,3.42
2018-12-20T09:11:36.458Z,3.45
2018-12-20T09:14:04.488Z,3.47
2018-12-20T09:16:32.446Z,3.41
2018-12-20T09:19:00.437Z,3.43
2018-12-20T09:21:28.716Z,3.45
2018-12-20T09:23:56.734Z,3.47
2018-12-20T09:26:24.810Z,3.55
2018-12-20T09:28:53.353Z,3.58
2018-12-20T09:31:21.369Z,3.72
2018-12-20T09:33:49.369Z,3.73
2018-12-20T09:36:17.318Z,3.72
2018-12-20T09:38:45.279Z,3.72
2018-12-20T09:41:13.746Z,3.97
2018-12-20T09:43:41.738Z,3.88
2018-12-20T09:46:09.764Z,3.93
2018-12-20T09:48:37.756Z,3.91
2018-12-20T09:51:05.793Z,3.89
2018-12-20T09:53:34.903Z,3.98
2018-12-20T09:56:02.921Z,3.91
2018-12-20T09:58:30.912Z,3.87
2018-12-20T10:00:58.878Z,3.89
2018-12-20T10:03:26.950Z,3.82
2018-12-20T10:05:54.938Z,3.77
2018-12-20T10:08:22.892Z,3.88
2018-12-20T10:10:50.883Z,3.86
2018-12-20T10:13:18.882Z,3.83
2018-12-20T10:15:46.858Z,3.89
2018-12-20T10:18:14.852Z,3.90
2018-12-20T10:20:42.809Z,3.93
2018-12-20T10:23:10.797Z,3.93
2018-12-20T10:25:38.758Z,3.91
2018-12-20T10:28:06.753Z,3.95
2018-12-20T10:30:34.720Z,3.82
2018-12-20T10:33:03.262Z,3.84
2018-12-20T10:35:31.245Z,3.88
2018-12-20T10:37:59.387Z,3.79
2018-12-20T10:40:27.350Z,3.91
2018-12-20T10:42:55.300Z,3.77
2018-12-20T10:45:23.431Z,3.85
2018-12-20T10:47:51.401Z,3.83
2018-12-20T10:50:19.405Z,3.95
2018-12-20T10:52:48.151Z,3.98
2018-12-20T10:55:16.232Z,4.02
2018-12-20T10:57:44.565Z,4.00
2018-12-20T11:00:12.613Z,4.05
2018-12-20T11:02:46.241Z,4.18
2018-12-20T11:05:19.831Z,4.14
2018-12-20T11:07:54.355Z,4.26
2018-12-20T11:10:26.222Z,4.30
2018-12-20T11:12:54.223Z,4.27
2018-12-20T11:15:23.039Z,4.29
2018-12-20T11:17:51.639Z,4.21
2018-12-20T11:20:20.557Z,4.26
2018-12-20T11:22:48.616Z,4.28
2018-12-20T11:25:16.884Z,4.37
2018-12-20T11:27:44.953Z,4.32
2018-12-20T11:30:12.909Z,4.27
2018-12-20T11:32:40.943Z,4.32
2018-12-20T11:35:08.915Z,4.31
2018-12-20T11:37:36.876Z,4.43
2018-12-20T11:40:05.128Z,4.36
2018-12-20T11:42:33.135Z,4.47
2018-12-20T11:45:01.110Z,4.35
2018-12-20T11:47:29.149Z,4.27
2018-12-20T11:49:57.098Z,4.34
2018-12-20T11:52:25.079Z,4.29
2018-12-20T11:54:54.344Z,4.32
2018-12-20T11:57:22.481Z,4.34
2018-12-20T11:59:50.506Z,4.30
2018-12-20T12:02:24.384Z,4.32
2018-12-20T12:04:49.054Z,4.41
2018-12-20T12:07:17.500Z,4.36
2018-12-20T12:09:45.714Z,4.34
2018-12-20T12:12:14.501Z,4.39
2018-12-20T12:14:42.799Z,4.41
2018-12-20T12:17:10.796Z,4.38
2018-12-20T12:19:39.749Z,4.38
2018-12-20T12:22:07.737Z,4.46
2018-12-20T12:24:35.700Z,4.49
2018-12-20T12:27:03.692Z,4.54
2018-12-20T12:29:32.381Z,4.38
2018-12-20T12:32:01.170Z,4.45
2018-12-20T12:34:29.509Z,4.53
2018-12-20T12:36:57.496Z,4.41
2018-12-20T12:39:25.569Z,4.52
2018-12-20T12:41:53.630Z,4.59
2018-12-20T12:44:22.124Z,4.54
2018-12-20T12:46:50.086Z,4.67
2018-12-20T12:49:18.093Z,4.51
2018-12-20T12:51:52.939Z,4.67
2018-12-20T12:54:16.141Z,4.68
2018-12-20T12:56:44.102Z,4.71
2018-12-20T12:59:12.471Z,4.69
2018-12-20T13:01:40.511Z,4.76
2018-12-20T13:04:08.575Z,4.75
2018-12-20T13:06:36.726Z,4.73
2018-12-20T13:09:05.824Z,4.81
2018-12-20T13:11:33.836Z,4.73
2018-12-20T13:14:01.883Z,4.69
2018-12-20T13:16:31.575Z,4.84
2018-12-20T13:19:00.173Z,4.88
2018-12-20T13:21:28.124Z,4.78
2018-12-20T13:23:56.131Z,4.80
2018-12-20T13:26:24.068Z,4.81
2018-12-20T13:28:52.073Z,4.83
2018-12-20T13:31:20.043Z,4.88
2018-12-20T13:33:48.060Z,4.79
2018-12-20T13:36:16.390Z,4.78
2018-12-20T13:38:44.426Z,4.76
2018-12-20T13:41:12.410Z,4.77
2018-12-20T13:43:40.355Z,4.95
2018-12-20T13:46:08.324Z,4.93
2018-12-20T13:48:36.288Z,4.98
2018-12-20T13:51:04.291Z,5.07
2018-12-20T13:53:32.263Z,5.01
2018-12-20T13:56:00.238Z,5.02
2018-12-20T13:58:28.228Z,5.00
2018-12-20T14:00:56.226Z,4.87
2018-12-20T14:03:24.220Z,4.84
2018-12-20T14:05:52.221Z,4.91
2018-12-20T14:08:20.189Z,5.02
2018-12-20T14:10:48.148Z,4.98
2018-12-20T14:13:16.119Z,5.12
2018-12-20T14:15:44.092Z,5.09
2018-12-20T14:18:12.028Z,5.02
2018-12-20T14:20:39.986Z,5.06
2018-12-20T14:23:07.957Z,5.13
2018-12-20T14:25:35.994Z,5.01
2018-12-20T14:28:03.941Z,5.10
2018-12-20T14:30:31.914Z,5.05
2018-12-20T14:33:00.006Z,4.97
2018-12-20T14:35:27.951Z,5.01
2018-12-20T14:37:55.973Z,5.10
2018-12-20T14:40:24.014Z,5.01
2018-12-20T14:42:52.526Z,5.02
2018-12-20T14:45:20.493Z,5.02
2018-12-20T14:47:48.476Z,4.87
2018-12-20T14:50:16.462Z,5.00
2018-12-20T14:52:44.451Z,5.00
2018-12-20T14:55:12.510Z,4.93
2018-12-20T14:57:40.470Z,4.89
2018-12-20T15:00:10.488Z,4.78
2018-12-20T15:02:38.552Z,4.80
2018-12-20T15:05:06.890Z,4.82
2018-12-20T15:07:34.845Z,5.43
2018-12-20T15:10:03.988Z,5.54
2018-12-20T15:12:31.973Z,5.45
2018-12-20T15:14:59.971Z,5.66
2018-12-20T15:17:27.965Z,5.76
2018-12-20T15:19:55.955Z,5.85
2018-12-20T15:22:23.993Z,5.84
2018-12-20T15:24:51.981Z,5.84
2018-12-20T15:27:19.951Z,5.85
2018-12-20T15:29:47.926Z,5.93
2018-12-20T15:32:15.894Z,6.00
2018-12-20T15:34:43.995Z,6.02
2018-12-20T15:37:11.948Z,6.04
2018-12-20T15:39:40.790Z,5.96
2018-12-20T15:42:08.820Z,5.83
2018-12-20T15:44:36.777Z,5.47
2018-12-20T15:47:04.787Z,5.32
2018-12-20T15:49:32.797Z,5.25
2018-12-20T15:52:00.848Z,5.16
2018-12-20T15:54:28.817Z,5.05
2018-12-20T15:56:56.833Z,4.98
2018-12-20T15:59:24.750Z,5.00
2018-12-20T16:01:52.882Z,4.97
2018-12-20T16:04:20.817Z,4.89
2018-12-20T16:06:48.786Z,4.96
2018-12-20T16:09:17.513Z,4.91
2018-12-20T16:11:46.499Z,4.86
2018-12-20T16:14:14.540Z,4.89
2018-12-20T16:16:42.981Z,4.75
2018-12-20T16:19:10.921Z,4.80
2018-12-20T16:21:38.957Z,4.79
2018-12-20T16:24:07.507Z,4.81
2018-12-20T16:26:35.655Z,4.84
2018-12-20T16:29:03.790Z,4.87
2018-12-20T16:31:31.811Z,4.80
2018-12-20T16:33:59.887Z,4.84
2018-12-20T16:36:27.957Z,4.83
2018-12-20T16:38:56.020Z,4.89
2018-12-20T16:41:24.046Z,4.96
2018-12-20T16:43:52.197Z,4.82
2018-12-20T16:46:20.762Z,4.82
2018-12-20T16:48:49.561Z,4.91
2018-12-20T16:51:18.027Z,4.89
2018-12-20T16:53:47.522Z,4.91
2018-12-20T16:56:15.519Z,4.93
2018-12-20T16:58:44.031Z,4.90
2018-12-20T17:01:12.401Z,5.15
2018-12-20T17:03:40.995Z,5.07
2018-12-20T17:06:09.147Z,5.04
2018-12-20T17:08:37.077Z,4.93
2018-12-20T17:11:05.069Z,5.09
2018-12-20T17:13:33.059Z,5.05
2018-12-20T17:16:01.746Z,5.01
2018-12-20T17:18:29.707Z,5.00
2018-12-20T17:20:57.739Z,4.94
2018-12-20T17:23:25.714Z,4.96
2018-12-20T17:25:53.723Z,5.04
2018-12-20T17:28:21.722Z,4.98
2018-12-20T17:30:49.799Z,4.93
2018-12-20T17:33:18.402Z,4.90
2018-12-20T17:35:46.424Z,4.90
2018-12-20T17:38:14.395Z,4.92
2018-12-20T17:40:42.463Z,4.84
2018-12-20T17:43:10.599Z,4.87
2018-12-20T17:45:38.756Z,4.92
2018-12-20T17:48:06.838Z,4.98
2018-12-20T17:50:34.834Z,4.98
2018-12-20T17:53:03.689Z,4.89
2018-12-20T17:55:32.020Z,4.88
2018-12-20T17:58:00.077Z,4.93
2018-12-20T18:00:28.272Z,4.84
2018-12-20T18:02:56.287Z,4.86
2018-12-20T18:05:24.293Z,4.90
2018-12-20T18:07:54.130Z,4.95
2018-12-20T18:10:22.131Z,4.93
2018-12-20T18:12:50.237Z,4.91
2018-12-20T18:15:19.330Z,4.79
2018-12-20T18:17:47.338Z,4.89
2018-12-20T18:20:15.398Z,5.00
2018-12-20T18:22:43.733Z,5.17
2018-12-20T18:25:11.791Z,5.13
2018-12-20T18:27:40.239Z,5.30
2018-12-20T18:30:10.182Z,5.40
2018-12-20T18:32:38.326Z,5.37
2018-12-20T18:35:06.332Z,5.16
2018-12-20T18:37:34.599Z,5.08
2018-12-20T18:40:02.647Z,5.02
2018-12-20T18:42:30.603Z,5.05
2018-12-20T18:44:58.676Z,4.96
2018-12-20T18:47:26.647Z,4.86
2018-12-20T18:49:54.583Z,4.86
2018-12-20T18:52:22.800Z,4.86
2018-12-20T18:54:50.793Z,4.86
2018-12-20T18:57:18.818Z,4.92
2018-12-20T18:59:47.029Z,4.77
2018-12-20T19:02:15.058Z,4.79
2018-12-20T19:04:43.770Z,4.72
2018-12-20T19:07:11.813Z,4.66
2018-12-20T19:09:39.770Z,4.65
2018-12-20T19:12:07.797Z,4.82
2018-12-20T19:14:35.875Z,4.80
2018-12-20T19:17:03.839Z,4.80
2018-12-20T19:19:32.172Z,4.78
2018-12-20T19:22:00.235Z,4.83
2018-12-20T19:24:28.321Z,4.87
2018-12-20T19:26:56.317Z,4.73
2018-12-20T19:29:25.133Z,4.80
2018-12-20T19:31:53.206Z,4.81
2018-12-20T19:34:21.774Z,4.78
2018-12-20T19:36:49.738Z,4.82
2018-12-20T19:39:20.073Z,4.79
2018-12-20T19:41:48.059Z,4.88
2018-12-20T19:44:16.058Z,4.81
2018-12-20T19:46:44.108Z,4.77
2018-12-20T19:49:12.281Z,4.65
2018-12-20T19:51:40.454Z,4.71
2018-12-20T19:54:08.433Z,4.73
2018-12-20T19:56:36.415Z,4.81
2018-12-20T19:59:05.187Z,4.75
2018-12-20T20:01:33.424Z,4.76
2018-12-20T20:04:01.678Z,4.74
2018-12-20T20:06:29.662Z,4.77
2018-12-20T20:08:57.661Z,4.82
2018-12-20T20:11:25.663Z,4.76
2018-12-20T20:13:53.626Z,4.76
2018-12-20T20:16:21.752Z,4.77
2018-12-20T20:18:49.922Z,4.81
2018-12-20T20:21:17.906Z,4.89
2018-12-20T20:23:45.865Z,4.81
2018-12-20T20:26:13.795Z,4.82
2018-12-20T20:28:41.901Z,4.87
2018-12-20T20:31:09.855Z,4.80
2018-12-20T20:33:37.831Z,4.66
2018-12-20T20:36:05.819Z,4.74
2018-12-20T20:38:33.793Z,4.73
2018-12-20T20:41:01.765Z,4.82
2018-12-20T20:43:29.812Z,4.69
2018-12-20T20:45:57.781Z,4.92
2018-12-20T20:48:25.765Z,5.18
2018-12-20T20:50:56.240Z,5.21
2018-12-20T20:53:24.246Z,5.32
2018-12-20T20:55:52.282Z,5.38
2018-12-20T20:58:20.381Z,5.35
2018-12-20T21:00:48.414Z,5.46
2018-12-20T21:03:16.366Z,5.81
2018-12-20T21:05:44.368Z,5.83
2018-12-20T21:08:12.397Z,5.82
2018-12-20T21:10:40.395Z,5.80
2018-12-20T21:13:08.352Z,5.71
2018-12-20T21:15:36.781Z,5.62
2018-12-20T21:18:04.810Z,5.48
2018-12-20T21:20:32.764Z,5.51
2018-12-20T21:23:00.727Z,5.47
2018-12-20T21:25:28.999Z,5.22
2018-12-20T21:27:56.944Z,5.18
2018-12-20T21:30:24.963Z,5.25
2018-12-20T21:32:53.047Z,5.18
2018-12-20T21:35:21.060Z,5.07
2018-12-20T21:37:49.031Z,5.08
2018-12-20T21:40:18.685Z,5.03
2018-12-20T21:42:47.429Z,4.94
2018-12-20T21:45:15.559Z,4.98
2018-12-20T21:47:43.600Z,4.91
2018-12-20T21:50:11.601Z,4.86
2018-12-20T21:52:39.670Z,4.84
2018-12-20T21:55:07.768Z,4.75
2018-12-20T21:57:35.843Z,4.76
2018-12-20T22:00:05.403Z,4.77
2018-12-20T22:02:33.478Z,4.62
2018-12-20T22:05:01.464Z,4.59
2018-12-20T22:07:29.428Z,4.56
2018-12-20T22:09:57.469Z,4.49
2018-12-20T22:12:25.410Z,4.53
2018-12-20T22:14:53.369Z,4.45
2018-12-20T22:17:21.742Z,4.45
2018-12-20T22:19:49.722Z,4.56
2018-12-20T22:22:17.715Z,4.49
2018-12-20T22:24:45.741Z,4.44
2018-12-20T22:27:13.748Z,4.43
2018-12-20T22:29:41.720Z,4.37
2018-12-20T22:32:09.816Z,4.52
2018-12-20T22:34:37.807Z,4.36
2018-12-20T22:37:05.802Z,4.33
2018-12-20T22:39:34.157Z,4.34
2018-12-20T22:42:02.107Z,4.34
2018-12-20T22:44:30.141Z,4.34
2018-12-20T22:46:58.173Z,4.32
2018-12-20T22:49:26.092Z,4.27
2018-12-20T22:51:54.194Z,4.28
2018-12-20T22:54:22.186Z,4.18
2018-12-20T22:56:50.181Z,4.09
2018-12-20T22:59:18.142Z,4.09
2018-12-20T23:01:46.177Z,4.09
2018-12-20T23:04:14.159Z,4.14
2018-12-20T23:06:42.162Z,4.19
2018-12-20T23:09:10.204Z,4.22
2018-12-20T23:11:38.257Z,4.24
2018-12-20T23:14:07.576Z,4.30
2018-12-20T23:16:35.583Z,4.30
2018-12-20T23:19:03.739Z,4.37
2018-12-20T23:21:31.734Z,4.29
2018-12-20T23:23:59.708Z,4.29
2018-12-20T23:26:27.687Z,4.34
2018-12-20T23:28:55.651Z,4.41
2018-12-20T23:31:24.041Z,4.52
2018-12-20T23:33:51.998Z,4.45
2018-12-20T23:36:20.445Z,4.48
2018-12-20T23:38:48.524Z,4.56
2018-12-20T23:41:17.543Z,4.56
2018-12-20T23:43:45.563Z,4.50
2018-12-20T23:46:13.499Z,4.51
2018-12-20T23:48:41.501Z,4.53
2018-12-20T23:51:13.444Z,4.53
2018-12-20T23:53:39.416Z,4.62
2018-12-20T23:56:07.402Z,4.56
2018-12-20T23:58:35.400Z,4.59
